createdAt,value
2022-11-30T00:01:17.936Z,69.55
2022-11-30T00:03:44.786Z,68.53
2022-11-30T00:06:12.753Z,71.55
2022-11-30T00:08:39.572Z,65.47
2022-11-30T00:11:13.613Z,65.47
2022-11-30T00:13:40.595Z,71.95
2022-11-30T00:16:08.500Z,70.43
2022-11-30T00:18:35.814Z,70.18
2022-11-30T00:21:03.419Z,70.63
2022-11-30T00:23:34.978Z,83.55
2022-11-30T00:26:06.005Z,74.07
2022-11-30T00:28:33.731Z,77.30
2022-11-30T00:31:01.184Z,81.00
2022-11-30T00:33:28.630Z,91.10
2022-11-30T00:35:56.243Z,94.00
2022-11-30T00:38:23.106Z,85.35
2022-11-30T00:40:50.035Z,99.15
2022-11-30T00:43:16.895Z,89.55
2022-11-30T00:45:44.442Z,82.75
2022-11-30T00:48:11.243Z,91.60
2022-11-30T00:50:38.378Z,95.07
2022-11-30T00:53:05.164Z,94.93
2022-11-30T00:55:33.529Z,97.75
2022-11-30T00:58:00.875Z,84.43
2022-11-30T01:00:28.378Z,90.55
2022-11-30T01:02:55.793Z,91.97
2022-11-30T01:05:22.929Z,92.72
2022-11-30T01:07:49.876Z,93.35
2022-11-30T01:10:16.792Z,87.35
2022-11-30T01:12:43.717Z,89.95
2022-11-30T01:15:10.792Z,83.63
2022-11-30T01:17:38.073Z,90.60
2022-11-30T01:20:05.579Z,89.30
2022-11-30T01:22:32.515Z,92.15
2022-11-30T01:24:59.767Z,82.38
2022-11-30T01:27:26.583Z,72.38
2022-11-30T01:29:53.411Z,78.78
2022-11-30T01:32:20.244Z,79.80
2022-11-30T01:34:47.316Z,78.85
2022-11-30T01:37:14.355Z,71.45
2022-11-30T01:39:41.192Z,79.53
2022-11-30T01:42:13.396Z,73.90
2022-11-30T01:44:48.423Z,73.60
2022-11-30T01:47:15.531Z,71.30
2022-11-30T01:49:44.690Z,84.88
2022-11-30T01:52:11.519Z,75.40
2022-11-30T01:54:45.220Z,74.20
2022-11-30T01:57:20.215Z,69.85
2022-11-30T01:59:48.380Z,72.97
2022-11-30T02:02:15.308Z,79.72
2022-11-30T02:04:42.296Z,76.30
2022-11-30T02:07:09.482Z,79.90
2022-11-30T02:09:40.344Z,72.50
2022-11-30T02:12:08.372Z,85.47
2022-11-30T02:14:39.930Z,75.20
2022-11-30T02:17:06.737Z,76.00
2022-11-30T02:19:49.805Z,73.07
2022-11-30T02:22:34.724Z,87.53
2022-11-30T02:25:08.160Z,81.95
2022-11-30T02:27:41.050Z,75.25
2022-11-30T02:30:10.126Z,79.07
2022-11-30T02:32:47.675Z,76.15
2022-11-30T02:35:16.453Z,79.43
2022-11-30T02:37:43.860Z,78.07
2022-11-30T02:40:13.578Z,79.38
2022-11-30T02:42:40.435Z,80.72
2022-11-30T02:45:10.439Z,76.90
2022-11-30T02:47:41.590Z,78.65
2022-11-30T02:50:14.428Z,70.32
2022-11-30T02:52:41.630Z,70.03
2022-11-30T02:55:10.508Z,81.10
2022-11-30T02:57:37.379Z,67.88
2022-11-30T03:00:07.194Z,66.32
2022-11-30T03:02:34.412Z,78.47
2022-11-30T03:05:01.367Z,65.53
2022-11-30T03:07:29.697Z,70.78
2022-11-30T03:09:56.718Z,71.05
2022-11-30T03:12:23.619Z,72.85
2022-11-30T03:14:50.444Z,74.47
2022-11-30T03:17:17.654Z,74.80
2022-11-30T03:19:44.409Z,71.30
2022-11-30T03:22:11.255Z,78.65
2022-11-30T03:24:38.064Z,67.30
2022-11-30T03:27:04.960Z,61.13
2022-11-30T03:29:31.855Z,71.85
2022-11-30T03:31:58.771Z,59.72
2022-11-30T03:34:27.494Z,63.45
2022-11-30T03:36:54.570Z,65.00
2022-11-30T03:39:21.391Z,65.65
2022-11-30T03:41:48.257Z,64.82
2022-11-30T03:44:15.135Z,54.50
2022-11-30T03:46:42.046Z,64.40
2022-11-30T03:49:08.942Z,58.25
2022-11-30T03:51:35.692Z,68.43
2022-11-30T03:54:02.530Z,63.38
2022-11-30T03:56:29.848Z,55.40
2022-11-30T03:58:56.746Z,55.72
2022-11-30T04:01:23.928Z,60.42
2022-11-30T04:03:51.438Z,60.90
2022-11-30T04:06:18.782Z,61.03
2022-11-30T04:08:45.625Z,62.28
2022-11-30T04:11:12.562Z,66.22
2022-11-30T04:13:39.920Z,61.13
2022-11-30T04:16:07.984Z,59.95
2022-11-30T04:18:35.744Z,56.50
2022-11-30T04:21:03.391Z,58.55
2022-11-30T04:23:31.592Z,59.83
2022-11-30T04:25:58.893Z,58.97
2022-11-30T04:28:25.809Z,60.65
2022-11-30T04:30:55.195Z,66.30
2022-11-30T04:33:22.068Z,60.55
2022-11-30T04:35:51.643Z,56.80
2022-11-30T04:38:18.586Z,71.35
2022-11-30T04:40:45.461Z,65.13
2022-11-30T04:43:12.753Z,70.65
2022-11-30T04:45:39.719Z,67.55
2022-11-30T04:48:07.040Z,60.75
2022-11-30T04:50:33.937Z,62.85
2022-11-30T04:53:00.863Z,62.00
2022-11-30T04:55:27.707Z,64.45
2022-11-30T04:57:54.537Z,63.15
2022-11-30T05:00:21.418Z,61.03
2022-11-30T05:02:52.991Z,61.88
2022-11-30T05:05:20.233Z,64.72
2022-11-30T05:08:05.243Z,67.28
2022-11-30T05:10:33.854Z,59.15
2022-11-30T05:13:00.595Z,67.95
2022-11-30T05:15:27.382Z,69.07
2022-11-30T05:17:54.142Z,55.42
2022-11-30T05:20:20.930Z,61.33
2022-11-30T05:22:48.757Z,68.32
2022-11-30T05:25:15.614Z,73.15
2022-11-30T05:27:42.407Z,66.43
2022-11-30T05:30:10.691Z,64.47
2022-11-30T05:32:37.456Z,71.28
2022-11-30T05:35:04.383Z,65.57
2022-11-30T05:37:31.200Z,70.90
2022-11-30T05:39:57.976Z,79.93
2022-11-30T05:42:25.060Z,71.15
2022-11-30T05:44:51.881Z,68.07
2022-11-30T05:47:18.758Z,76.55
2022-11-30T05:49:45.526Z,90.25
2022-11-30T05:52:12.408Z,72.40
2022-11-30T05:54:39.271Z,73.97
2022-11-30T05:57:06.021Z,76.93
2022-11-30T05:59:33.058Z,78.72
2022-11-30T06:01:59.964Z,88.05
2022-11-30T06:04:26.861Z,90.35
2022-11-30T06:06:55.734Z,98.05
2022-11-30T06:09:22.904Z,83.93
2022-11-30T06:11:49.686Z,89.57
2022-11-30T06:14:16.513Z,85.30
2022-11-30T06:16:43.257Z,79.15
2022-11-30T06:19:10.099Z,88.82
2022-11-30T06:21:36.863Z,93.38
2022-11-30T06:24:03.709Z,89.53
2022-11-30T06:26:30.407Z,87.53
2022-11-30T06:28:57.206Z,82.95
2022-11-30T06:31:24.015Z,87.85
2022-11-30T06:33:50.890Z,84.35
2022-11-30T06:36:23.576Z,91.68
2022-11-30T06:38:50.827Z,79.80
2022-11-30T06:41:17.822Z,102.30
2022-11-30T06:43:44.587Z,94.18
2022-11-30T06:46:11.483Z,87.93
2022-11-30T06:48:38.420Z,98.72
2022-11-30T06:51:05.835Z,91.47
2022-11-30T06:53:32.698Z,97.60
2022-11-30T06:55:59.471Z,87.03
2022-11-30T06:58:26.229Z,102.20
2022-11-30T07:00:53.091Z,94.30
2022-11-30T07:03:20.013Z,88.10
2022-11-30T07:05:47.157Z,98.90
2022-11-30T07:08:15.027Z,93.43
2022-11-30T07:10:45.197Z,94.10
2022-11-30T07:13:12.558Z,106.63
2022-11-30T07:15:39.850Z,97.05
2022-11-30T07:18:06.673Z,94.43
2022-11-30T07:20:33.648Z,92.15
2022-11-30T07:23:39.207Z,88.53
2022-11-30T07:26:09.658Z,90.53
2022-11-30T07:28:40.719Z,100.13
2022-11-30T07:31:16.614Z,101.88
2022-11-30T07:33:44.092Z,100.78
2022-11-30T07:36:11.183Z,103.18
2022-11-30T07:38:38.597Z,100.15
2022-11-30T07:41:05.625Z,96.28
2022-11-30T07:43:33.253Z,105.43
2022-11-30T07:46:00.745Z,112.20
2022-11-30T07:48:27.624Z,114.63
2022-11-30T07:50:54.540Z,111.90
2022-11-30T07:53:21.487Z,110.22
2022-11-30T07:55:51.540Z,109.13
2022-11-30T07:58:22.276Z,105.95
2022-11-30T08:00:49.126Z,100.75
2022-11-30T08:03:15.994Z,106.03
2022-11-30T08:05:42.768Z,119.05
2022-11-30T08:08:09.552Z,125.68
2022-11-30T08:10:36.368Z,117.45
2022-11-30T08:13:03.144Z,118.72
2022-11-30T08:15:33.046Z,125.63
2022-11-30T08:18:05.441Z,110.10
2022-11-30T08:20:32.422Z,129.77
2022-11-30T08:22:59.558Z,119.57
2022-11-30T08:25:26.354Z,121.50
2022-11-30T08:27:53.109Z,133.90
2022-11-30T08:30:19.924Z,124.05
2022-11-30T08:32:46.657Z,134.13
2022-11-30T08:35:13.426Z,127.05
2022-11-30T08:37:40.393Z,124.85
2022-11-30T08:40:07.414Z,122.22
2022-11-30T08:42:34.257Z,137.02
2022-11-30T08:45:01.533Z,113.88
2022-11-30T08:47:30.347Z,118.60
2022-11-30T08:49:57.959Z,121.00
2022-11-30T08:52:24.754Z,132.60
2022-11-30T08:54:51.883Z,121.93
2022-11-30T08:57:19.903Z,106.10
2022-11-30T08:59:47.130Z,109.88
2022-11-30T09:02:17.568Z,111.97
2022-11-30T09:04:45.011Z,109.93
2022-11-30T09:07:11.946Z,104.03
2022-11-30T09:09:39.300Z,105.13
2022-11-30T09:12:06.937Z,117.57
2022-11-30T09:14:34.112Z,100.70
2022-11-30T09:17:00.848Z,111.72
2022-11-30T09:19:27.669Z,104.55
2022-11-30T09:21:54.524Z,91.75
2022-11-30T09:24:21.354Z,92.53
2022-11-30T09:26:48.261Z,92.55
2022-11-30T09:29:15.050Z,91.43
2022-11-30T09:31:41.855Z,96.63
2022-11-30T09:34:10.882Z,95.65
2022-11-30T09:36:37.664Z,90.95
2022-11-30T09:39:04.581Z,86.72
2022-11-30T09:41:34.458Z,95.47
2022-11-30T09:44:03.984Z,78.20
2022-11-30T09:46:36.953Z,88.53
2022-11-30T09:49:26.900Z,92.47
2022-11-30T09:51:55.702Z,103.60
2022-11-30T09:54:41.093Z,86.95
2022-11-30T09:57:27.767Z,79.80
2022-11-30T09:59:57.331Z,93.07
2022-11-30T10:02:31.758Z,91.50
2022-11-30T10:04:59.393Z,83.03
2022-11-30T10:07:32.074Z,90.55
2022-11-30T10:12:59.511Z,90.00
2022-11-30T10:15:38.520Z,86.15
2022-11-30T10:18:28.687Z,90.25
2022-11-30T10:20:59.196Z,86.10
2022-11-30T10:25:59.415Z,81.95
2022-11-30T10:28:48.862Z,86.45
2022-11-30T10:31:16.475Z,82.73
2022-11-30T10:33:45.693Z,87.00
2022-11-30T10:36:15.287Z,81.10
2022-11-30T10:38:47.827Z,86.68
2022-11-30T10:41:24.160Z,84.35
2022-11-30T10:44:06.860Z,85.05
2022-11-30T10:46:36.678Z,80.75
2022-11-30T10:49:08.226Z,90.50
2022-11-30T10:51:37.106Z,87.80
2022-11-30T10:54:11.713Z,81.25
2022-11-30T10:56:38.620Z,79.30
2022-11-30T10:59:25.730Z,86.20
2022-11-30T11:01:53.796Z,81.45
2022-11-30T11:04:25.525Z,84.60
2022-11-30T11:06:57.209Z,80.75
2022-11-30T11:09:27.732Z,78.25
2022-11-30T11:14:23.283Z,81.32
2022-11-30T11:16:54.151Z,78.13
2022-11-30T11:19:41.741Z,76.65
2022-11-30T11:22:22.076Z,84.43
2022-11-30T11:24:49.928Z,87.68
2022-11-30T11:27:22.303Z,82.55
2022-11-30T11:29:58.273Z,83.75
2022-11-30T11:32:25.349Z,84.50
2022-11-30T11:34:52.557Z,83.13
2022-11-30T11:37:20.394Z,75.03
2022-11-30T11:40:01.281Z,85.05
2022-11-30T11:42:31.512Z,89.15
2022-11-30T11:44:59.794Z,76.35
2022-11-30T11:47:35.709Z,83.50
2022-11-30T11:50:49.888Z,77.20
2022-11-30T11:53:15.615Z,82.75
2022-11-30T11:55:43.628Z,94.97
2022-11-30T11:58:15.718Z,83.50
2022-11-30T12:00:43.140Z,82.22
2022-11-30T12:03:25.062Z,92.15
2022-11-30T12:05:54.351Z,87.68
2022-11-30T12:08:31.645Z,74.20
2022-11-30T12:11:04.334Z,90.90
2022-11-30T12:13:37.455Z,94.95
2022-11-30T12:16:04.616Z,102.20
2022-11-30T12:18:41.306Z,90.88
2022-11-30T12:21:13.816Z,88.75
2022-11-30T12:23:47.845Z,89.45
2022-11-30T12:26:33.302Z,88.25
2022-11-30T12:28:59.994Z,73.60
2022-11-30T12:31:32.890Z,85.15
2022-11-30T12:34:05.716Z,82.43
2022-11-30T12:36:44.295Z,84.40
2022-11-30T12:39:11.199Z,86.80
2022-11-30T12:41:56.695Z,71.22
2022-11-30T12:44:29.952Z,90.40
2022-11-30T12:47:22.215Z,80.93
2022-11-30T12:49:49.137Z,95.57
2022-11-30T12:52:28.932Z,80.13
2022-11-30T12:55:15.651Z,89.22
2022-11-30T12:57:46.478Z,90.38
2022-11-30T13:00:16.865Z,89.10
2022-11-30T13:03:02.796Z,88.28
2022-11-30T13:05:40.606Z,94.35
2022-11-30T13:08:29.409Z,99.88
2022-11-30T13:11:06.601Z,96.35
2022-11-30T13:13:36.216Z,94.43
2022-11-30T13:16:06.239Z,92.50
2022-11-30T13:18:35.328Z,100.35
2022-11-30T13:21:21.942Z,92.15
2022-11-30T13:23:55.757Z,100.95
2022-11-30T13:26:29.197Z,87.72
2022-11-30T13:29:16.757Z,95.22
2022-11-30T13:31:43.628Z,91.47
2022-11-30T13:34:43.021Z,98.05
2022-11-30T13:37:12.809Z,104.85
2022-11-30T13:39:53.004Z,100.07
2022-11-30T13:42:38.269Z,101.18
2022-11-30T13:45:14.338Z,103.57
2022-11-30T13:47:48.269Z,104.63
2022-11-30T13:50:25.440Z,115.07
2022-11-30T13:52:59.560Z,105.07
2022-11-30T13:55:34.028Z,107.03
2022-11-30T13:58:01.649Z,106.88
2022-11-30T14:00:30.276Z,112.05
2022-11-30T14:06:29.003Z,118.32
2022-11-30T14:08:57.024Z,104.40
2022-11-30T14:11:38.088Z,104.63
2022-11-30T14:14:23.836Z,120.28
2022-11-30T14:16:50.956Z,100.45
2022-11-30T14:19:17.984Z,116.55
2022-11-30T14:21:45.321Z,118.13
2022-11-30T14:24:21.482Z,101.25
2022-11-30T14:26:50.006Z,100.95
2022-11-30T14:29:23.482Z,118.38
2022-11-30T14:31:56.690Z,105.00
2022-11-30T14:34:29.054Z,109.75
2022-11-30T14:36:58.814Z,108.65
2022-11-30T14:39:29.049Z,125.25
2022-11-30T14:44:23.270Z,103.55
2022-11-30T14:46:50.808Z,104.85
2022-11-30T14:49:20.352Z,100.00
2022-11-30T14:51:58.932Z,103.28
2022-11-30T14:54:26.112Z,105.10
2022-11-30T14:56:58.222Z,96.80
2022-11-30T14:59:25.314Z,108.38
2022-11-30T15:01:59.236Z,107.63
2022-11-30T15:04:27.802Z,109.45
2022-11-30T15:06:55.709Z,105.95
2022-11-30T15:09:25.860Z,100.40
2022-11-30T15:11:53.242Z,105.10
2022-11-30T15:14:20.410Z,97.30
2022-11-30T15:16:57.505Z,102.55
2022-11-30T15:19:26.515Z,98.60
2022-11-30T15:21:53.995Z,102.78
2022-11-30T15:24:21.658Z,113.60
2022-11-30T15:26:52.754Z,102.45
2022-11-30T15:29:23.748Z,107.50
2022-11-30T15:31:52.154Z,100.90
2022-11-30T15:34:25.416Z,95.78
2022-11-30T15:36:56.651Z,92.75
2022-11-30T15:39:25.023Z,100.60
2022-11-30T15:41:56.743Z,97.57
2022-11-30T15:44:45.459Z,82.57
2022-11-30T15:47:26.491Z,95.30
2022-11-30T15:49:55.723Z,103.43
2022-11-30T15:52:29.335Z,89.40
2022-11-30T15:54:59.040Z,86.88
2022-11-30T15:57:27.173Z,96.20
2022-11-30T16:00:20.304Z,97.55
2022-11-30T16:02:47.548Z,93.20
2022-11-30T16:05:18.401Z,93.07
2022-11-30T16:07:53.387Z,93.03
2022-11-30T16:10:25.076Z,104.45
2022-11-30T16:12:52.934Z,102.70
2022-11-30T16:15:21.535Z,103.47
2022-11-30T16:17:48.402Z,106.90
2022-11-30T16:20:16.271Z,95.68
2022-11-30T16:22:44.590Z,109.72
2022-11-30T16:25:19.504Z,109.25
2022-11-30T16:27:48.176Z,109.93
2022-11-30T16:30:16.598Z,115.55
2022-11-30T16:32:44.397Z,104.40
2022-11-30T16:35:22.252Z,116.15
2022-11-30T16:37:49.545Z,120.82
2022-11-30T16:40:16.890Z,112.25
2022-11-30T16:42:44.039Z,119.53
2022-11-30T16:45:17.901Z,118.95
2022-11-30T16:47:45.180Z,117.55
2022-11-30T16:50:13.158Z,117.25
2022-11-30T16:52:40.467Z,115.13
2022-11-30T16:55:12.832Z,119.47
2022-11-30T16:57:39.899Z,111.45
2022-11-30T17:00:09.076Z,123.85
2022-11-30T17:02:37.906Z,108.55
2022-11-30T17:05:05.138Z,125.00
2022-11-30T17:07:32.222Z,106.63
2022-11-30T17:09:59.218Z,111.25
2022-11-30T17:12:26.325Z,114.80
2022-11-30T17:14:53.424Z,105.03
2022-11-30T17:17:20.369Z,109.13
2022-11-30T17:19:47.373Z,110.07
2022-11-30T17:22:14.220Z,106.72
2022-11-30T17:24:41.385Z,109.30
2022-11-30T17:27:08.523Z,112.90
2022-11-30T17:29:35.623Z,109.35
2022-11-30T17:32:02.609Z,114.85
2022-11-30T17:34:29.639Z,101.43
2022-11-30T17:36:57.313Z,110.85
2022-11-30T17:39:24.511Z,104.00
2022-11-30T17:41:51.861Z,97.07
2022-11-30T17:44:19.338Z,110.35
2022-11-30T17:46:48.747Z,103.35
2022-11-30T17:49:15.744Z,108.43
2022-11-30T17:51:42.803Z,99.80
2022-11-30T17:54:11.217Z,109.47
2022-11-30T17:56:38.275Z,109.90
2022-11-30T17:59:05.332Z,99.40
2022-11-30T18:01:32.524Z,118.20
2022-11-30T18:03:59.841Z,113.00
2022-11-30T18:06:26.893Z,104.25
2022-11-30T18:08:54.330Z,109.47
2022-11-30T18:11:25.684Z,111.70
2022-11-30T18:13:54.176Z,113.28
2022-11-30T18:16:23.327Z,114.22
2022-11-30T18:18:50.554Z,112.18
2022-11-30T18:21:21.661Z,110.20
2022-11-30T18:23:49.305Z,119.15
2022-11-30T18:26:18.209Z,109.38
2022-11-30T18:28:45.716Z,106.03
2022-11-30T18:31:13.503Z,111.10
2022-11-30T18:33:40.556Z,111.28
2022-11-30T18:36:08.067Z,99.57
2022-11-30T18:38:38.072Z,107.18
2022-11-30T18:41:05.874Z,116.40
2022-11-30T18:43:34.015Z,122.78
2022-11-30T18:46:04.800Z,117.82
2022-11-30T18:48:32.027Z,106.68
2022-11-30T18:50:59.075Z,111.72
2022-11-30T18:53:26.746Z,112.45
2022-11-30T18:55:53.677Z,109.13
2022-11-30T18:58:20.736Z,114.35
2022-11-30T19:00:47.644Z,113.05
2022-11-30T19:03:14.921Z,108.50
2022-11-30T19:05:42.291Z,113.82
2022-11-30T19:08:11.510Z,120.85
2022-11-30T19:10:40.689Z,115.88
2022-11-30T19:13:07.821Z,113.30
2022-11-30T19:15:42.233Z,157.45
2022-11-30T19:18:11.124Z,119.40
2022-11-30T19:20:41.600Z,126.90
2022-11-30T19:25:35.127Z,110.45
2022-11-30T19:28:02.123Z,110.68
2022-11-30T19:30:29.360Z,114.45
2022-11-30T19:33:08.295Z,124.53
2022-11-30T19:35:38.754Z,128.82
2022-11-30T19:38:05.651Z,131.23
2022-11-30T19:40:32.954Z,130.23
2022-11-30T19:43:01.317Z,118.00
2022-11-30T19:45:28.219Z,134.00
2022-11-30T19:47:55.295Z,126.10
2022-11-30T19:50:22.822Z,128.27
2022-11-30T19:52:50.304Z,129.88
2022-11-30T19:55:17.310Z,122.97
2022-11-30T19:57:45.119Z,133.27
2022-11-30T20:00:13.623Z,139.23
2022-11-30T20:02:40.659Z,138.23
2022-11-30T20:05:07.706Z,130.27
2022-11-30T20:07:35.724Z,137.85
2022-11-30T20:10:02.641Z,131.98
2022-11-30T20:12:30.176Z,126.93
2022-11-30T20:14:57.168Z,123.95
2022-11-30T20:17:24.143Z,116.15
2022-11-30T20:19:51.064Z,123.07
2022-11-30T20:22:17.931Z,117.22
2022-11-30T20:24:44.946Z,119.97
2022-11-30T20:27:11.963Z,128.68
2022-11-30T20:29:38.963Z,127.15
2022-11-30T20:32:06.673Z,126.25
2022-11-30T20:34:38.675Z,127.25
2022-11-30T20:37:07.961Z,136.38
2022-11-30T20:39:37.183Z,149.95
2022-11-30T20:42:05.898Z,142.45
2022-11-30T20:44:32.741Z,147.25
2022-11-30T20:46:59.825Z,139.02
2022-11-30T20:49:27.187Z,131.48
2022-11-30T20:51:54.205Z,136.45
2022-11-30T20:54:21.237Z,138.73
2022-11-30T20:56:51.249Z,147.10
2022-11-30T21:01:49.383Z,128.25
2022-11-30T21:04:16.340Z,131.88
2022-11-30T21:06:45.844Z,134.60
2022-11-30T21:09:16.818Z,134.77
2022-11-30T21:11:44.342Z,129.73
2022-11-30T21:14:11.269Z,134.48
2022-11-30T21:16:38.254Z,133.23
2022-11-30T21:19:05.115Z,137.48
2022-11-30T21:21:33.191Z,113.43
2022-11-30T21:24:02.047Z,119.78
2022-11-30T21:26:37.306Z,111.10
2022-11-30T21:29:07.074Z,113.80
2022-11-30T21:31:35.348Z,109.45
2022-11-30T21:34:02.378Z,114.68
2022-11-30T21:36:29.366Z,119.95
2022-11-30T21:39:04.506Z,131.40
2022-11-30T21:41:32.426Z,131.73
2022-11-30T21:43:59.294Z,129.15
2022-11-30T21:46:26.194Z,131.73
2022-11-30T21:48:53.269Z,127.85
2022-11-30T21:51:24.696Z,135.63
2022-11-30T21:53:52.947Z,134.68
2022-11-30T21:56:25.054Z,121.90
2022-11-30T21:58:52.270Z,126.68
2022-11-30T22:01:20.323Z,115.85
2022-11-30T22:03:47.726Z,121.55
2022-11-30T22:06:15.809Z,130.30
2022-11-30T22:08:43.057Z,113.38
2022-11-30T22:11:17.391Z,111.35
2022-11-30T22:13:44.430Z,114.65
2022-11-30T22:16:15.523Z,119.20
2022-11-30T22:18:43.297Z,111.22
2022-11-30T22:21:20.247Z,105.63
2022-11-30T22:23:49.377Z,108.40
2022-11-30T22:26:17.879Z,112.75
2022-11-30T22:28:52.876Z,102.03
2022-11-30T22:31:21.750Z,110.60
2022-11-30T22:33:49.172Z,121.45
2022-11-30T22:36:17.546Z,109.10
2022-11-30T22:38:44.846Z,115.57
2022-11-30T22:41:16.322Z,121.43
2022-11-30T22:43:43.702Z,130.63
2022-11-30T22:46:11.940Z,110.22
2022-11-30T22:48:39.159Z,113.38
2022-11-30T22:51:07.551Z,116.40
2022-11-30T22:53:36.235Z,124.10
2022-11-30T22:56:04.478Z,129.48
2022-11-30T22:58:32.005Z,132.82
2022-11-30T23:00:59.564Z,133.48
2022-11-30T23:03:27.846Z,136.55
2022-11-30T23:05:55.466Z,134.10
2022-11-30T23:08:22.369Z,146.63
2022-11-30T23:10:49.243Z,126.82
2022-11-30T23:13:16.275Z,145.25
2022-11-30T23:15:43.305Z,151.18
2022-11-30T23:18:10.326Z,156.80
2022-11-30T23:20:37.458Z,154.88
2022-11-30T23:23:04.394Z,151.07
2022-11-30T23:25:31.389Z,154.95
2022-11-30T23:27:58.346Z,154.75
2022-11-30T23:30:25.277Z,141.00
2022-11-30T23:32:56.012Z,141.80
2022-11-30T23:35:24.116Z,142.07
2022-11-30T23:37:52.180Z,143.40
2022-11-30T23:40:19.488Z,126.75
2022-11-30T23:42:46.373Z,127.85
2022-11-30T23:45:13.291Z,133.85
2022-11-30T23:47:40.324Z,134.02
2022-11-30T23:50:07.804Z,135.00
2022-11-30T23:52:34.801Z,135.20
2022-11-30T23:55:01.859Z,122.32
2022-11-30T23:57:30.212Z,132.52
2022-11-30T23:59:57.084Z,120.95
